Wetterdaten: Freitag, 25.11.2022
Datum Zeit Außen Temp. Server Temp. +20m Feuchte Feuchte +20m Luftdruck Regen Wind Richtung Richtung Sonnenschein Helligkeit Solar Taupunkt
25.11.2022 00:00 3,2 °C 9,8 °C 3,2 °C 83 % 89 % 1015,8 hPa 0,00 l/m² 9,5 km/h (2 Bft) O 95 ° 0 min 0 lux 0 W/m² 0,6 °C
25.11.2022 00:15 3,0 °C 9,7 °C 3,1 °C 83 % 90 % 1015,9 hPa 0,00 l/m² 7,7 km/h (2 Bft) O 100 ° 0 min 0 lux 0 W/m² 0,4 °C
25.11.2022 00:30 2,9 °C 9,6 °C 3,1 °C 83 % 91 % 1015,9 hPa 0,00 l/m² 5,6 km/h (1 Bft) O 100 ° 0 min 0 lux 0 W/m² 0,3 °C
25.11.2022 00:45 2,8 °C 9,5 °C 3,0 °C 83 % 92 % 1015,9 hPa 0,00 l/m² 7,0 km/h (2 Bft) O 100 ° 0 min 0 lux 0 W/m² 0,2 °C
25.11.2022 01:00 2,6 °C 9,4 °C 2,8 °C 83 % 92 % 1015,9 hPa 0,00 l/m² 9,6 km/h (2 Bft) O±22.5° 95 ° 0 min 0 lux 0 W/m² 0,0 °C
25.11.2022 01:15 2,5 °C 9,4 °C 2,7 °C 83 % 92 % 1015,9 hPa 0,00 l/m² 8,3 km/h (2 Bft) O 90 ° 0 min 0 lux 0 W/m² -0,1 °C
25.11.2022 01:30 2,5 °C 9,3 °C 2,6 °C 83 % 92 % 1015,9 hPa 0,00 l/m² 9,6 km/h (2 Bft) O 90 ° 0 min 0 lux 0 W/m² -0,1 °C
25.11.2022 01:45 2,3 °C 9,3 °C 2,6 °C 83 % 92 % 1015,9 hPa 0,00 l/m² 7,0 km/h (2 Bft) O 90 ° 0 min 0 lux 0 W/m² -0,3 °C
25.11.2022 02:00 2,3 °C 9,2 °C 2,4 °C 84 % 92 % 1015,9 hPa 0,00 l/m² 8,9 km/h (2 Bft) O 90 ° 0 min 0 lux 0 W/m² -0,1 °C
25.11.2022 02:15 2,0 °C 9,2 °C 2,3 °C 84 % 92 % 1016,0 hPa 0,00 l/m² 11,3 km/h (2 Bft) O 85 ° 0 min 0 lux 0 W/m² -0,4 °C
25.11.2022 02:30 2,0 °C 9,1 °C 2,0 °C 84 % 92 % 1016,0 hPa 0,00 l/m² 6,5 km/h (2 Bft) O±22.5° 95 ° 0 min 0 lux 0 W/m² -0,4 °C
25.11.2022 02:45 2,0 °C 9,1 °C 2,3 °C 84 % 92 % 1016,0 hPa 0,00 l/m² 10,2 km/h (2 Bft) O-SO±22.5 115 ° 0 min 0 lux 0 W/m² -0,4 °C
25.11.2022 03:00 2,2 °C 9,0 °C 2,6 °C 84 % 92 % 1016,0 hPa 0,00 l/m² 12,3 km/h (3 Bft) SO±22.5° 145 ° 0 min 0 lux 0 W/m² -0,2 °C
25.11.2022 03:15 3,3 °C 8,9 °C 3,5 °C 84 % 92 % 1015,8 hPa 0,00 l/m² 10,9 km/h (2 Bft) SO±22.5° 140 ° 0 min 0 lux 0 W/m² 0,9 °C
25.11.2022 03:30 3,8 °C 8,8 °C 3,8 °C 84 % 92 % 1015,8 hPa 0,00 l/m² 12,6 km/h (3 Bft) SO 130 ° 0 min 0 lux 0 W/m² 1,4 °C
25.11.2022 03:45 3,8 °C 8,8 °C 3,6 °C 83 % 92 % 1015,8 hPa 0,00 l/m² 11,8 km/h (2 Bft) SO±22.5° 140 ° 0 min 0 lux 0 W/m² 1,2 °C
25.11.2022 04:00 3,8 °C 8,8 °C 3,7 °C 83 % 92 % 1015,8 hPa 0,00 l/m² 18,3 km/h (3 Bft) S-SO±45° 150 ° 0 min 0 lux 0 W/m² 1,2 °C
25.11.2022 04:15 4,2 °C 8,7 °C 4,1 °C 83 % 92 % 1014,7 hPa 0,00 l/m² 16,0 km/h (3 Bft) S-SO±45° 150 ° 0 min 0 lux 0 W/m² 1,6 °C
25.11.2022 04:30 4,6 °C 8,7 °C 4,4 °C 82 % 92 % 1014,7 hPa 0,00 l/m² 18,3 km/h (3 Bft) SO±45° 140 ° 0 min 0 lux 0 W/m² 1,8 °C
25.11.2022 04:45 4,8 °C 8,7 °C 4,5 °C 82 % 92 % 1014,6 hPa 0,00 l/m² 19,6 km/h (3 Bft) SO±45° 135 ° 0 min 0 lux 0 W/m² 2,0 °C
25.11.2022 05:00 5,0 °C 8,7 °C 4,7 °C 82 % 92 % 1014,6 hPa 0,00 l/m² 20,4 km/h (4 Bft) SO±67.5° 140 ° 0 min 0 lux 0 W/m² 2,2 °C
25.11.2022 05:15 4,7 °C 8,7 °C 4,5 °C 82 % 91 % 1014,6 hPa 0,00 l/m² 16,1 km/h (3 Bft) SO±22.5° 130 ° 0 min 0 lux 0 W/m² 1,9 °C
25.11.2022 05:30 4,8 °C 8,7 °C 4,5 °C 82 % 90 % 1014,6 hPa 0,00 l/m² 15,3 km/h (3 Bft) SO±22.5° 135 ° 0 min 0 lux 0 W/m² 2,0 °C
25.11.2022 05:45 4,8 °C 8,7 °C 4,5 °C 82 % 90 % 1014,6 hPa 0,00 l/m² 14,1 km/h (3 Bft) SO±22.5° 140 ° 0 min 0 lux 0 W/m² 2,0 °C
25.11.2022 06:00 4,7 °C 8,7 °C 4,5 °C 82 % 89 % 1015,7 hPa 0,00 l/m² 16,0 km/h (3 Bft) SO±22.5° 145 ° 0 min 0 lux 0 W/m² 1,9 °C
25.11.2022 06:15 4,7 °C 8,7 °C 4,6 °C 82 % 89 % 1014,6 hPa 0,00 l/m² 13,4 km/h (3 Bft) SO±22.5° 145 ° 0 min 0 lux 0 W/m² 1,9 °C
25.11.2022 06:30 4,8 °C 8,7 °C 4,7 °C 82 % 88 % 1015,7 hPa 0,00 l/m² 15,2 km/h (3 Bft) SO±45° 135 ° 0 min 0 lux 0 W/m² 2,0 °C
25.11.2022 06:45 4,4 °C 8,7 °C 4,1 °C 82 % 87 % 1015,7 hPa 0,00 l/m² 12,0 km/h (2 Bft) S-SO±45° 150 ° 0 min 0 lux 0 W/m² 1,6 °C
25.11.2022 07:00 4,1 °C 8,7 °C 4,3 °C 82 % 87 % 1015,7 hPa 0,00 l/m² 13,9 km/h (3 Bft) SO±22.5° 125 ° 0 min 0 lux 0 W/m² 1,3 °C
25.11.2022 07:15 4,6 °C 8,7 °C 4,6 °C 82 % 87 % 1015,7 hPa 0,00 l/m² 15,1 km/h (3 Bft) SO±45° 135 ° 0 min 0 lux 0 W/m² 1,8 °C
25.11.2022 07:30 4,8 °C 8,7 °C 4,8 °C 82 % 86 % 1015,7 hPa 0,00 l/m² 16,1 km/h (3 Bft) SO±22.5° 130 ° 0 min 53 lux 0 W/m² 2,0 °C
25.11.2022 07:45 4,9 °C 8,7 °C 4,8 °C 82 % 85 % 1015,6 hPa 0,00 l/m² 14,2 km/h (3 Bft) SO±45° 145 ° 0 min 222 lux 0 W/m² 2,1 °C
25.11.2022 08:00 5,0 °C 8,7 °C 5,2 °C 82 % 85 % 1015,6 hPa 0,00 l/m² 17,7 km/h (3 Bft) O-SO±45° 120 ° 0 min 546 lux 0 W/m² 2,2 °C
25.11.2022 08:15 5,3 °C 8,7 °C 5,3 °C 82 % 82 % 1015,6 hPa 0,00 l/m² 14,8 km/h (3 Bft) O-SO±45° 120 ° 0 min 860 lux 6 W/m² 2,5 °C
25.11.2022 08:30 5,8 °C 8,7 °C 5,8 °C 82 % 80 % 1015,5 hPa 0,00 l/m² 22,0 km/h (4 Bft) SO±45° 135 ° 0 min 1,33 klux 9 W/m² 3,0 °C
25.11.2022 08:45 5,9 °C 8,8 °C 6,0 °C 82 % 77 % 1015,5 hPa 0,00 l/m² 16,6 km/h (3 Bft) SO±45° 130 ° 0 min 2,15 klux 14 W/m² 3,1 °C
25.11.2022 09:00 6,1 °C 8,8 °C 6,1 °C 82 % 74 % 1015,5 hPa 0,00 l/m² 12,9 km/h (3 Bft) SO±45° 135 ° 0 min 2,34 klux 15 W/m² 3,3 °C
25.11.2022 09:15 6,3 °C 8,9 °C 6,4 °C 82 % 68 % 1015,5 hPa 0,00 l/m² 15,7 km/h (3 Bft) SO±45° 145 ° 0 min 2,77 klux 18 W/m² 3,5 °C
25.11.2022 09:30 6,4 °C 8,9 °C 6,6 °C 82 % 64 % 1016,5 hPa 0,00 l/m² 14,2 km/h (3 Bft) SO±45° 145 ° 0 min 3,64 klux 24 W/m² 3,6 °C
25.11.2022 09:45 6,5 °C 9,0 °C 6,7 °C 82 % 59 % 1016,5 hPa 0,00 l/m² 18,0 km/h (3 Bft) SO±45° 140 ° 0 min 4,57 klux 30 W/m² 3,7 °C
25.11.2022 10:00 6,6 °C 9,0 °C 7,0 °C 82 % 56 % 1016,5 hPa 0,00 l/m² 17,3 km/h (3 Bft) SO±45° 140 ° 0 min 4,38 klux 29 W/m² 3,8 °C
25.11.2022 10:15 6,9 °C 9,0 °C 7,4 °C 82 % 53 % 1016,5 hPa 0,00 l/m² 15,4 km/h (3 Bft) S-SO±45° 150 ° 0 min 7,84 klux 51 W/m² 4,0 °C
25.11.2022 10:30 7,2 °C 9,1 °C 7,5 °C 82 % 52 % 1016,4 hPa 0,00 l/m² 15,3 km/h (3 Bft) S±45° 170 ° 0 min 9,2 klux 60 W/m² 4,3 °C
25.11.2022 10:45 7,2 °C 9,1 °C 7,7 °C 81 % 50 % 1016,4 hPa 0,00 l/m² 13,6 km/h (3 Bft) S-SO±45° 155 ° 0 min 7,42 klux 48 W/m² 4,2 °C
25.11.2022 11:00 7,3 °C 9,1 °C 7,6 °C 81 % 49 % 1016,4 hPa 0,00 l/m² 19,6 km/h (3 Bft) SO±22.5° 135 ° 0 min 7,98 klux 52 W/m² 4,3 °C
25.11.2022 11:15 7,4 °C 9,2 °C 8,0 °C 80 % 48 % 1016,4 hPa 0,00 l/m² 13,1 km/h (3 Bft) S±45° 170 ° 0 min 9,0 klux 59 W/m² 4,2 °C
25.11.2022 11:30 7,4 °C 9,2 °C 7,9 °C 80 % 47 % 1016,4 hPa 0,00 l/m² 12,6 km/h (3 Bft) S-SO±22.5 165 ° 0 min 7,86 klux 51 W/m² 4,2 °C
25.11.2022 11:45 7,4 °C 9,3 °C 7,9 °C 80 % 48 % 1016,4 hPa 0,00 l/m² 16,7 km/h (3 Bft) S-SO±45° 155 ° 0 min 6,41 klux 42 W/m² 4,2 °C
25.11.2022 12:00 7,1 °C 9,3 °C 7,5 °C 81 % 49 % 1016,4 hPa 0,00 l/m² 14,3 km/h (3 Bft) S-SO±45° 150 ° 0 min 4,51 klux 29 W/m² 4,1 °C
25.11.2022 12:15 6,9 °C 9,3 °C 7,5 °C 82 % 50 % 1016,5 hPa 0,05 l/m² 13,0 km/h (3 Bft) S-SO±67.5 160 ° 0 min 5,90 klux 38 W/m² 4,0 °C
25.11.2022 12:30 6,9 °C 9,3 °C 7,4 °C 82 % 51 % 1016,5 hPa 0,05 l/m² 11,8 km/h (2 Bft) S-SO±22.5 160 ° 0 min 6,57 klux 43 W/m² 4,0 °C
25.11.2022 12:45 6,7 °C 9,4 °C 7,1 °C 82 % 53 % 1016,5 hPa 0,00 l/m² 10,0 km/h (2 Bft) S±22.5° 180 ° 0 min 3,06 klux 20 W/m² 3,8 °C
25.11.2022 13:00 6,7 °C 9,4 °C 7,2 °C 82 % 54 % 1016,5 hPa 0,28 l/m² 8,5 km/h (2 Bft) S±22.5° 190 ° 0 min 5,70 klux 37 W/m² 3,8 °C
25.11.2022 13:15 6,5 °C 9,4 °C 7,2 °C 82 % 55 % 1016,5 hPa 0,38 l/m² 9,0 km/h (2 Bft) S±22.5° 180 ° 0 min 6,52 klux 42 W/m² 3,7 °C
25.11.2022 13:30 6,5 °C 9,4 °C 7,3 °C 82 % 55 % 1016,5 hPa 0,22 l/m² 8,6 km/h (2 Bft) S-SO±45° 160 ° 0 min 6,84 klux 45 W/m² 3,7 °C
25.11.2022 13:46 6,5 °C 9,4 °C 7,2 °C 82 % 56 % 1016,5 hPa 0,05 l/m² 7,7 km/h (2 Bft) S±22.5° 180 ° 0 min 5,02 klux 33 W/m² 3,7 °C
25.11.2022 14:00 6,5 °C 9,5 °C 7,1 °C 82 % 57 % 1016,5 hPa 0,00 l/m² 6,3 km/h (2 Bft) S±22.5° 170 ° 0 min 5,43 klux 35 W/m² 3,7 °C
25.11.2022 14:15 6,4 °C 9,5 °C 7,1 °C 82 % 57 % 1017,5 hPa 0,05 l/m² 6,7 km/h (2 Bft) S±22.5° 185 ° 0 min 3,66 klux 24 W/m² 3,6 °C
25.11.2022 14:30 6,5 °C 9,5 °C 7,4 °C 82 % 58 % 1017,5 hPa 0,00 l/m² 6,1 km/h (2 Bft) SO±22.5° 140 ° 0 min 6,72 klux 44 W/m² 3,7 °C
25.11.2022 14:45 7,0 °C 9,6 °C 7,6 °C 81 % 58 % 1017,5 hPa 0,00 l/m² 2,8 km/h (1 Bft) SO 135 ° 0 min 11,8 klux 77 W/m² 4,0 °C
25.11.2022 15:00 6,9 °C 9,6 °C 7,4 °C 81 % 56 % 1017,5 hPa 0,00 l/m² 7,9 km/h (2 Bft) SO±22.5° 135 ° 0 min 6,00 klux 39 W/m² 3,9 °C
25.11.2022 15:15 6,7 °C 9,6 °C 7,2 °C 82 % 58 % 1017,5 hPa 0,00 l/m² 4,0 km/h (1 Bft) SO 135 ° 0 min 1,69 klux 11 W/m² 3,8 °C
25.11.2022 15:30 6,8 °C 9,6 °C 7,2 °C 81 % 61 % 1017,5 hPa 0,00 l/m² 0,3 km/h (0 Bft) SO 135 ° 0 min 2,19 klux 14 W/m² 3,8 °C
25.11.2022 15:45 6,9 °C 9,6 °C 7,3 °C 81 % 63 % 1017,5 hPa 0,00 l/m² 5,2 km/h (1 Bft) SO 135 ° 0 min 3,62 klux 24 W/m² 3,9 °C
25.11.2022 16:00 6,8 °C 9,7 °C 7,1 °C 82 % 66 % 1018,5 hPa 0,00 l/m² 6,3 km/h (2 Bft) O-SO±22.5 115 ° 0 min 2,36 klux 15 W/m² 3,9 °C
25.11.2022 16:15 6,4 °C 9,7 °C 6,6 °C 82 % 67 % 1018,6 hPa 0,00 l/m² 5,4 km/h (1 Bft) O 85 ° 0 min 1,12 klux 0 W/m² 3,6 °C
25.11.2022 16:30 6,4 °C 9,7 °C 6,7 °C 82 % 72 % 1018,6 hPa 0,00 l/m² 4,3 km/h (1 Bft) O 90 ° 0 min 202 lux 0 W/m² 3,6 °C
25.11.2022 16:45 6,4 °C 9,7 °C 6,7 °C 82 % 74 % 1018,6 hPa 0,00 l/m² 0,3 km/h (0 Bft) O 85 ° 0 min 35 lux 0 W/m² 3,6 °C
25.11.2022 17:00 6,4 °C 9,7 °C 6,6 °C 82 % 75 % 1018,6 hPa 0,00 l/m² 2,8 km/h (1 Bft) O 85 ° 0 min 5 lux 0 W/m² 3,6 °C
25.11.2022 17:15 6,3 °C 9,7 °C 6,5 °C 82 % 76 % 1018,6 hPa 0,00 l/m² 4,5 km/h (1 Bft) O 85 ° 0 min 0 lux 0 W/m² 3,5 °C
25.11.2022 17:30 6,3 °C 9,7 °C 6,7 °C 82 % 79 % 1019,6 hPa 0,00 l/m² 4,5 km/h (1 Bft) O 85 ° 0 min 0 lux 0 W/m² 3,5 °C
25.11.2022 17:45 6,4 °C 9,7 °C 6,6 °C 82 % 80 % 1019,6 hPa 0,00 l/m² 2,5 km/h (1 Bft) O 85 ° 0 min 0 lux 0 W/m² 3,6 °C
25.11.2022 18:00 6,3 °C 9,7 °C 6,5 °C 82 % 80 % 1019,6 hPa 0,00 l/m² 0,0 km/h (0 Bft) O 85 ° 0 min 0 lux 0 W/m² 3,5 °C
25.11.2022 18:15 6,3 °C 9,7 °C 6,4 °C 82 % 80 % 1019,6 hPa 0,00 l/m² 0,0 km/h (0 Bft) O 85 ° 0 min 0 lux 0 W/m² 3,5 °C
25.11.2022 18:30 6,3 °C 9,7 °C 6,5 °C 82 % 82 % 1019,6 hPa 0,00 l/m² 3,9 km/h (1 Bft) O 85 ° 0 min 0 lux 0 W/m² 3,5 °C
25.11.2022 18:45 6,3 °C 9,7 °C 6,4 °C 82 % 82 % 1019,6 hPa 0,00 l/m² 0,0 km/h (0 Bft) O 85 ° 0 min 0 lux 0 W/m² 3,5 °C
25.11.2022 19:00 6,1 °C 9,7 °C 6,4 °C 82 % 83 % 1020,7 hPa 0,00 l/m² 0,0 km/h (0 Bft) O 85 ° 0 min 0 lux 0 W/m² 3,3 °C
25.11.2022 19:15 6,1 °C 9,7 °C 6,2 °C 82 % 84 % 1020,7 hPa 0,00 l/m² 0,0 km/h (0 Bft) O 85 ° 0 min 0 lux 0 W/m² 3,3 °C
25.11.2022 19:30 6,1 °C 9,7 °C 6,2 °C 82 % 84 % 1020,7 hPa 0,00 l/m² 0,0 km/h (0 Bft) O 85 ° 0 min 0 lux 0 W/m² 3,3 °C
25.11.2022 19:45 6,2 °C 9,7 °C 6,3 °C 82 % 84 % 1020,7 hPa 0,00 l/m² 0,4 km/h (0 Bft) O 85 ° 0 min 0 lux 0 W/m² 3,4 °C
25.11.2022 20:00 6,3 °C 9,7 °C 6,4 °C 83 % 85 % 1020,6 hPa 0,00 l/m² 7,0 km/h (2 Bft) O 85 ° 0 min 0 lux 0 W/m² 3,6 °C
25.11.2022 20:15 6,2 °C 9,7 °C 6,3 °C 83 % 86 % 1021,7 hPa 0,00 l/m² 3,7 km/h (1 Bft) O 85 ° 0 min 0 lux 0 W/m² 3,5 °C
25.11.2022 20:30 6,2 °C 9,7 °C 6,3 °C 83 % 86 % 1021,7 hPa 0,00 l/m² 0,0 km/h (0 Bft) O 85 ° 0 min 0 lux 0 W/m² 3,5 °C
25.11.2022 20:45 6,2 °C 9,7 °C 6,3 °C 83 % 86 % 1021,7 hPa 0,00 l/m² 0,0 km/h (0 Bft) O 85 ° 0 min 0 lux 0 W/m² 3,5 °C
25.11.2022 21:00 6,3 °C 9,7 °C 6,3 °C 83 % 86 % 1021,7 hPa 0,00 l/m² 0,0 km/h (0 Bft) O 85 ° 0 min 0 lux 0 W/m² 3,6 °C
25.11.2022 21:15 6,3 °C 9,7 °C 6,3 °C 83 % 87 % 1021,7 hPa 0,00 l/m² 0,0 km/h (0 Bft) O 85 ° 0 min 0 lux 0 W/m² 3,6 °C
25.11.2022 21:30 6,3 °C 9,7 °C 6,3 °C 83 % 87 % 1022,7 hPa 0,00 l/m² 0,7 km/h (0 Bft) O 85 ° 0 min 0 lux 0 W/m² 3,6 °C
25.11.2022 21:45 6,2 °C 9,7 °C 6,4 °C 83 % 87 % 1022,7 hPa 0,00 l/m² 0,0 km/h (0 Bft) O 85 ° 0 min 0 lux 0 W/m² 3,5 °C
25.11.2022 22:00 6,3 °C 9,7 °C 6,4 °C 83 % 88 % 1022,7 hPa 0,00 l/m² 0,0 km/h (0 Bft) O 85 ° 0 min 0 lux 0 W/m² 3,6 °C
25.11.2022 22:15 6,1 °C 9,8 °C 6,3 °C 83 % 87 % 1022,7 hPa 0,00 l/m² 0,0 km/h (0 Bft) O 85 ° 0 min 0 lux 0 W/m² 3,4 °C
25.11.2022 22:30 6,3 °C 9,7 °C 6,4 °C 83 % 88 % 1022,7 hPa 0,11 l/m² 3,3 km/h (1 Bft) O 85 ° 0 min 0 lux 0 W/m² 3,6 °C
25.11.2022 22:45 6,1 °C 9,8 °C 6,3 °C 83 % 88 % 1023,8 hPa 0,05 l/m² 0,0 km/h (0 Bft) O 85 ° 0 min 0 lux 0 W/m² 3,4 °C
25.11.2022 23:00 6,1 °C 9,8 °C 6,3 °C 83 % 88 % 1023,8 hPa 0,22 l/m² 0,0 km/h (0 Bft) O 85 ° 0 min 0 lux 0 W/m² 3,4 °C
25.11.2022 23:15 6,2 °C 9,7 °C 6,3 °C 83 % 88 % 1023,8 hPa 0,28 l/m² 0,0 km/h (0 Bft) O 85 ° 0 min 0 lux 0 W/m² 3,5 °C
25.11.2022 23:30 6,1 °C 9,8 °C 6,4 °C 83 % 89 % 1023,8 hPa 0,00 l/m² 0,0 km/h (0 Bft) O 85 ° 0 min 0 lux 0 W/m² 3,4 °C
25.11.2022 23:45 6,2 °C 9,7 °C 6,4 °C 83 % 89 % 1023,8 hPa 0,00 l/m² 0,0 km/h (0 Bft) O 85 ° 0 min 0 lux 0 W/m² 3,5 °C
_ Min-Zeit 02:15 04:15 02:30 11:15 11:30 05:00 - 18:00 - - - - - 02:15
Minimum _ 2,0 °C 8,7 °C 2,0 °C 80 % 47 % 1014,6 hPa - 0,0 km/h (0 Bft) - - - - - -0,4 °C
_ Max-Zeit 11:15 00:00 11:15 02:00 00:45 22:45 13:15 08:30 - - 00:00 14:45 14:45 10:30
Maximum _ 7,4 °C 9,8 °C 8,0 °C 84 % 92 % 1023,8 hPa 0,38 l/m² 22,0 km/h
SO (4 Bft)
- - 0 min 11,8 klux 77 W/m² 4,3 °C
Durchschnitt _ 5,5 °C 9,3 °C 5,7 °C 82 % 77 % 1017,7 hPa #1,76 l/m² 8,6 km/h (2 Bft) SO - #0 min. 1,75 klux 34 W/m² 2,7 °C